createdAt,value
2023-03-04T00:00:46.343Z,92.59
2023-03-04T00:04:20.819Z,92.67
2023-03-04T00:07:48.187Z,92.48
2023-03-04T00:11:15.363Z,92.17
2023-03-04T00:14:42.664Z,92.08
2023-03-04T00:18:10.072Z,92.18
2023-03-04T00:21:37.236Z,92.23
2023-03-04T00:25:04.529Z,92.08
2023-03-04T00:28:31.665Z,92.33
2023-03-04T00:31:58.908Z,92.18
2023-03-04T00:35:26.582Z,92.15
2023-03-04T00:38:54.356Z,91.90
2023-03-04T00:42:21.578Z,92.05
2023-03-04T00:45:48.877Z,91.80
2023-03-04T00:49:16.148Z,91.92
2023-03-04T00:52:43.477Z,91.84
2023-03-04T00:56:11.121Z,91.28
2023-03-04T00:59:38.239Z,91.42
2023-03-04T01:03:05.473Z,91.50
2023-03-04T01:06:32.857Z,91.56
2023-03-04T01:10:00.044Z,91.48
2023-03-04T01:13:27.324Z,91.14
2023-03-04T01:16:54.694Z,91.22
2023-03-04T01:20:22.635Z,91.19
2023-03-04T01:23:49.787Z,91.15
2023-03-04T01:27:16.972Z,91.21
2023-03-04T01:30:44.299Z,91.04
2023-03-04T01:34:11.442Z,90.76
2023-03-04T01:37:38.581Z,91.03
2023-03-04T01:41:07.700Z,90.92
2023-03-04T01:44:35.033Z,90.69
2023-03-04T01:48:02.229Z,90.66
2023-03-04T01:51:29.398Z,90.51
2023-03-04T01:54:56.824Z,90.50
2023-03-04T01:58:32.314Z,90.24
2023-03-04T02:02:01.412Z,90.45
2023-03-04T02:05:31.349Z,90.56
2023-03-04T02:08:58.789Z,90.52
2023-03-04T02:12:26.022Z,90.48
2023-03-04T02:15:53.313Z,90.43
2023-03-04T02:19:34.043Z,90.33
2023-03-04T02:23:08.790Z,90.13
2023-03-04T02:26:37.240Z,90.54
2023-03-04T02:30:04.822Z,90.33
2023-03-04T02:33:33.212Z,89.95
2023-03-04T02:37:00.945Z,89.91
2023-03-04T02:40:32.619Z,89.87
2023-03-04T02:43:59.986Z,89.30
2023-03-04T02:47:27.829Z,89.27
2023-03-04T02:50:56.530Z,89.31
2023-03-04T02:54:25.331Z,89.22
2023-03-04T02:57:52.387Z,89.43
2023-03-04T03:01:19.541Z,89.48
2023-03-04T03:04:46.972Z,88.97
2023-03-04T03:08:16.076Z,89.25
2023-03-04T03:11:43.517Z,89.16
2023-03-04T03:15:12.928Z,88.97
2023-03-04T03:18:41.507Z,89.01
2023-03-04T03:22:09.261Z,88.66
2023-03-04T03:25:36.455Z,88.76
2023-03-04T03:29:03.554Z,88.51
2023-03-04T03:32:30.828Z,88.57
2023-03-04T03:35:58.406Z,88.65
2023-03-04T03:39:25.715Z,88.56
2023-03-04T03:42:52.861Z,88.58
2023-03-04T03:46:19.971Z,88.48
2023-03-04T03:49:47.284Z,88.54
2023-03-04T03:53:14.441Z,88.35
2023-03-04T03:56:41.733Z,88.49
2023-03-04T04:00:11.201Z,88.56
2023-03-04T04:03:41.172Z,88.76
2023-03-04T04:07:08.326Z,88.41
2023-03-04T04:10:35.401Z,88.49
2023-03-04T04:14:02.600Z,88.27
2023-03-04T04:17:29.874Z,88.06
2023-03-04T04:20:57.079Z,87.64
2023-03-04T04:24:24.862Z,87.62
2023-03-04T04:27:51.967Z,87.67
2023-03-04T04:31:19.188Z,87.62
2023-03-04T04:34:46.432Z,87.66
2023-03-04T04:38:13.677Z,87.60
2023-03-04T04:41:43.122Z,87.42
2023-03-04T04:45:12.718Z,87.43
2023-03-04T04:48:38.176Z,87.10
2023-03-04T04:52:05.494Z,87.19
2023-03-04T04:55:33.359Z,87.01
2023-03-04T04:59:02.794Z,86.80
2023-03-04T05:02:29.987Z,86.68
2023-03-04T05:05:57.202Z,86.85
2023-03-04T05:09:24.572Z,87.07
2023-03-04T05:12:51.731Z,87.09
2023-03-04T05:16:19.533Z,87.08
2023-03-04T05:19:46.868Z,87.06
2023-03-04T05:23:14.012Z,87.19
2023-03-04T05:26:41.111Z,87.29
2023-03-04T05:30:10.488Z,87.39
2023-03-04T05:33:37.867Z,87.53
2023-03-04T05:37:05.140Z,87.57
2023-03-04T05:40:32.288Z,87.54
2023-03-04T05:43:59.649Z,87.62
2023-03-04T05:47:26.745Z,87.79
2023-03-04T05:50:58.127Z,88.03
2023-03-04T05:54:25.393Z,88.03
2023-03-04T05:57:52.686Z,88.14
2023-03-04T06:01:20.294Z,88.31
2023-03-04T06:04:47.488Z,88.34
2023-03-04T06:08:15.288Z,88.37
2023-03-04T06:11:42.950Z,88.65
2023-03-04T06:15:11.630Z,88.67
2023-03-04T06:18:39.335Z,88.72
2023-03-04T06:22:06.467Z,88.80
2023-03-04T06:25:34.638Z,88.84
2023-03-04T06:29:01.747Z,88.79
2023-03-04T06:32:29.095Z,89.14
2023-03-04T06:35:58.610Z,89.36
2023-03-04T06:39:25.891Z,89.06
2023-03-04T06:42:52.966Z,89.05
2023-03-04T06:46:20.046Z,89.31
2023-03-04T06:49:47.293Z,89.25
2023-03-04T06:53:14.348Z,89.25
2023-03-04T06:56:41.613Z,89.33
2023-03-04T07:00:10.747Z,89.28
2023-03-04T07:03:38.167Z,89.35
2023-03-04T07:07:05.283Z,89.24
2023-03-04T07:10:32.380Z,89.26
2023-03-04T07:13:59.464Z,89.04
2023-03-04T07:17:26.914Z,89.04
2023-03-04T07:20:56.423Z,89.07
2023-03-04T07:24:23.986Z,88.97
2023-03-04T07:27:51.022Z,89.00
2023-03-04T07:31:24.804Z,89.00
2023-03-04T07:34:52.334Z,88.89
2023-03-04T07:38:19.325Z,88.95
2023-03-04T07:41:46.550Z,88.89
2023-03-04T07:45:14.771Z,89.04
2023-03-04T07:48:42.144Z,88.99
2023-03-04T07:52:09.651Z,89.10
2023-03-04T07:55:36.716Z,89.02
2023-03-04T07:59:04.375Z,89.07
2023-03-04T08:02:31.480Z,88.91
2023-03-04T08:05:58.534Z,88.84
2023-03-04T08:09:26.218Z,88.96
2023-03-04T08:12:53.331Z,88.85
2023-03-04T08:16:23.056Z,88.84
2023-03-04T08:19:48.614Z,88.75
2023-03-04T08:23:15.613Z,88.76
2023-03-04T08:26:45.340Z,88.81
2023-03-04T08:30:12.192Z,88.91
2023-03-04T08:33:39.360Z,88.78
2023-03-04T08:37:07.249Z,88.85
2023-03-04T08:40:34.673Z,88.85
2023-03-04T08:44:03.053Z,89.04
2023-03-04T08:47:30.117Z,89.09
2023-03-04T08:50:57.622Z,89.31
2023-03-04T08:54:24.824Z,89.42
2023-03-04T08:57:51.985Z,89.90
2023-03-04T09:01:19.348Z,90.01
2023-03-04T09:04:46.880Z,90.07
2023-03-04T09:08:14.352Z,90.29
2023-03-04T09:11:41.389Z,90.44
2023-03-04T09:15:11.980Z,90.66
2023-03-04T09:18:40.143Z,90.95
2023-03-04T09:22:07.227Z,91.16
2023-03-04T09:25:34.560Z,91.30
2023-03-04T09:29:03.161Z,91.46
2023-03-04T09:32:30.484Z,91.50
2023-03-04T09:35:59.102Z,91.28
2023-03-04T09:39:26.574Z,91.16
2023-03-04T09:42:58.189Z,91.04
2023-03-04T09:46:35.188Z,91.34
2023-03-04T09:50:04.835Z,91.86
2023-03-04T09:53:41.473Z,91.70
2023-03-04T09:57:28.059Z,91.63
2023-03-04T10:01:05.138Z,91.61
2023-03-04T10:04:42.190Z,91.78
2023-03-04T10:08:25.525Z,91.97
2023-03-04T10:12:01.687Z,92.13
2023-03-04T10:15:36.951Z,92.21
2023-03-04T10:19:17.321Z,92.11
2023-03-04T10:22:47.530Z,91.35
2023-03-04T10:26:16.689Z,90.93
2023-03-04T10:29:43.950Z,90.32
2023-03-04T10:33:16.781Z,89.91
2023-03-04T10:36:54.694Z,88.85
2023-03-04T10:40:25.472Z,87.63
2023-03-04T10:44:05.061Z,87.25
2023-03-04T10:47:35.308Z,87.38
2023-03-04T10:51:20.152Z,86.90
2023-03-04T10:54:53.662Z,85.03
2023-03-04T10:58:22.237Z,84.50
2023-03-04T11:01:51.279Z,83.71
2023-03-04T11:05:22.741Z,83.62
2023-03-04T11:08:56.871Z,83.58
2023-03-04T11:12:33.992Z,82.75
2023-03-04T11:16:03.729Z,82.64
2023-03-04T11:19:39.610Z,82.44
2023-03-04T11:23:11.606Z,83.35
2023-03-04T11:26:44.290Z,82.58
2023-03-04T11:30:37.820Z,81.82
2023-03-04T11:34:13.721Z,81.91
2023-03-04T11:37:45.323Z,80.65
2023-03-04T11:41:19.254Z,81.01
2023-03-04T11:44:46.528Z,80.74
2023-03-04T11:48:18.192Z,80.82
2023-03-04T11:51:52.417Z,81.53
2023-03-04T11:55:39.155Z,81.99
2023-03-04T11:59:23.481Z,82.52
2023-03-04T12:03:04.128Z,82.98
2023-03-04T12:06:44.097Z,83.08
2023-03-04T12:10:23.723Z,82.75
2023-03-04T12:14:09.465Z,82.91
2023-03-04T12:17:53.398Z,81.82
2023-03-04T12:21:42.585Z,81.65
2023-03-04T12:25:25.318Z,81.84
2023-03-04T12:28:58.587Z,82.20
2023-03-04T12:32:34.530Z,80.52
2023-03-04T12:36:13.581Z,79.76
2023-03-04T12:39:47.027Z,78.58
2023-03-04T12:43:33.935Z,78.38
2023-03-04T12:47:14.948Z,75.93
2023-03-04T12:50:52.933Z,76.72
2023-03-04T12:54:32.156Z,75.80
2023-03-04T12:58:00.172Z,76.44
2023-03-04T13:01:32.818Z,77.00
2023-03-04T13:05:15.368Z,77.56
2023-03-04T13:08:54.919Z,77.11
2023-03-04T13:12:23.668Z,77.02
2023-03-04T13:16:05.764Z,77.28
2023-03-04T13:19:52.553Z,76.80
2023-03-04T13:23:31.952Z,75.08
2023-03-04T13:26:59.255Z,76.42
2023-03-04T13:31:06.908Z,77.91
2023-03-04T13:34:53.996Z,78.99
2023-03-04T13:38:34.685Z,80.61
2023-03-04T13:42:02.971Z,81.09
2023-03-04T13:45:40.555Z,81.30
2023-03-04T13:49:10.081Z,81.71
2023-03-04T13:52:44.724Z,81.99
2023-03-04T13:56:30.048Z,82.24
2023-03-04T13:59:58.654Z,82.24
2023-03-04T14:03:29.125Z,82.19
2023-03-04T14:06:58.875Z,82.54
2023-03-04T14:10:26.896Z,82.09
2023-03-04T14:13:55.024Z,81.69
2023-03-04T14:17:25.419Z,81.89
2023-03-04T14:20:58.983Z,81.94
2023-03-04T14:24:26.666Z,81.07
2023-03-04T14:28:05.823Z,80.21
2023-03-04T14:31:37.325Z,80.17
2023-03-04T14:35:08.455Z,80.00
2023-03-04T14:38:38.984Z,79.46
2023-03-04T14:42:12.108Z,77.88
2023-03-04T14:45:40.681Z,77.61
2023-03-04T14:49:07.879Z,77.01
2023-03-04T14:52:38.644Z,73.38
2023-03-04T14:56:07.904Z,74.16
2023-03-04T14:59:37.024Z,75.29
2023-03-04T15:03:09.579Z,76.39
2023-03-04T15:06:39.157Z,76.24
2023-03-04T15:10:09.438Z,76.95
2023-03-04T15:13:45.198Z,76.75
2023-03-04T15:17:26.960Z,76.56
2023-03-04T15:21:03.061Z,76.84
2023-03-04T15:24:30.194Z,76.87
2023-03-04T15:27:58.044Z,76.76
2023-03-04T15:31:27.026Z,76.67
2023-03-04T15:34:54.277Z,76.89
2023-03-04T15:38:22.611Z,76.57
2023-03-04T15:41:50.712Z,76.83
2023-03-04T15:45:24.529Z,76.57
2023-03-04T15:48:51.656Z,76.58
2023-03-04T15:52:21.346Z,76.73
2023-03-04T15:55:50.442Z,76.94
2023-03-04T15:59:19.465Z,77.19
2023-03-04T16:02:47.483Z,77.47
2023-03-04T16:06:18.713Z,77.49
2023-03-04T16:09:46.322Z,77.48
2023-03-04T16:13:18.106Z,77.87
2023-03-04T16:16:46.947Z,77.86
2023-03-04T16:20:17.192Z,78.00
2023-03-04T16:23:46.885Z,78.20
2023-03-04T16:27:14.164Z,78.44
2023-03-04T16:30:41.669Z,78.46
2023-03-04T16:34:09.020Z,78.64
2023-03-04T16:37:36.301Z,78.86
2023-03-04T16:41:03.502Z,78.88
2023-03-04T16:44:30.760Z,79.00
2023-03-04T16:47:57.883Z,79.50
2023-03-04T16:51:26.096Z,79.49
2023-03-04T16:54:53.573Z,79.99
2023-03-04T16:58:20.746Z,79.85
2023-03-04T17:01:48.579Z,80.02
2023-03-04T17:05:21.169Z,80.08
2023-03-04T17:08:48.743Z,80.02
2023-03-04T17:12:15.935Z,80.17
2023-03-04T17:15:45.392Z,79.88
2023-03-04T17:19:10.965Z,80.07
2023-03-04T17:22:38.413Z,80.35
2023-03-04T17:26:06.218Z,80.33
2023-03-04T17:29:33.445Z,80.08
2023-03-04T17:33:01.162Z,79.68
2023-03-04T17:36:28.455Z,79.81
2023-03-04T17:39:55.706Z,79.35
2023-03-04T17:43:23.073Z,79.00
2023-03-04T17:46:51.975Z,78.60
2023-03-04T17:50:22.805Z,78.63
2023-03-04T17:53:49.942Z,78.11
2023-03-04T17:57:17.151Z,77.65
2023-03-04T18:00:44.560Z,77.55
2023-03-04T18:04:12.154Z,77.43
2023-03-04T18:07:39.370Z,77.08
2023-03-04T18:11:07.026Z,77.25
2023-03-04T18:14:34.179Z,76.92
2023-03-04T18:18:01.616Z,76.62
2023-03-04T18:21:30.489Z,76.33
2023-03-04T18:24:57.645Z,76.10
2023-03-04T18:28:26.104Z,76.15
2023-03-04T18:31:53.382Z,75.68
2023-03-04T18:35:21.768Z,75.73
2023-03-04T18:38:49.157Z,75.40
2023-03-04T18:42:16.362Z,74.79
2023-03-04T18:45:43.421Z,74.76
2023-03-04T18:49:11.549Z,74.46
2023-03-04T18:52:38.890Z,74.34
2023-03-04T18:56:12.475Z,74.02
2023-03-04T18:59:44.111Z,74.07
2023-03-04T19:03:14.141Z,74.19
2023-03-04T19:06:41.688Z,74.59
2023-03-04T19:10:10.624Z,74.62
2023-03-04T19:13:37.965Z,74.63
2023-03-04T19:17:05.288Z,74.81
2023-03-04T19:20:32.714Z,74.78
2023-03-04T19:23:59.867Z,74.76
2023-03-04T19:27:27.380Z,74.82
2023-03-04T19:30:59.005Z,75.01
2023-03-04T19:34:26.432Z,75.08
2023-03-04T19:37:53.589Z,75.34
2023-03-04T19:41:20.955Z,75.49
2023-03-04T19:44:48.602Z,75.61
2023-03-04T19:48:15.979Z,76.02
2023-03-04T19:51:43.032Z,76.18
2023-03-04T19:55:12.947Z,76.18
2023-03-04T19:58:40.120Z,76.32
2023-03-04T20:02:07.271Z,76.40
2023-03-04T20:05:34.859Z,76.58
2023-03-04T20:09:02.829Z,76.83
2023-03-04T20:12:31.417Z,76.83
2023-03-04T20:15:58.507Z,77.11
2023-03-04T20:19:26.087Z,77.20
2023-03-04T20:22:53.295Z,77.52
2023-03-04T20:26:20.633Z,77.74
2023-03-04T20:29:51.093Z,78.18
2023-03-04T20:33:19.178Z,78.32
2023-03-04T20:36:46.268Z,78.57
2023-03-04T20:40:16.197Z,78.78
2023-03-04T20:43:43.603Z,78.80
2023-03-04T20:47:11.379Z,78.96
2023-03-04T20:50:39.017Z,78.94
2023-03-04T20:54:07.320Z,79.07
2023-03-04T20:57:34.487Z,79.00
2023-03-04T21:01:01.896Z,79.11
2023-03-04T21:04:31.361Z,79.31
2023-03-04T21:08:01.387Z,79.43
2023-03-04T21:11:28.682Z,79.52
2023-03-04T21:14:55.894Z,79.55
2023-03-04T21:18:23.166Z,79.47
2023-03-04T21:21:52.418Z,79.39
2023-03-04T21:25:23.225Z,79.49
2023-03-04T21:28:51.080Z,79.47
2023-03-04T21:32:25.230Z,79.60
2023-03-04T21:35:52.722Z,79.55
2023-03-04T21:39:23.294Z,79.46
2023-03-04T21:42:50.643Z,79.69
2023-03-04T21:46:19.160Z,79.80
2023-03-04T21:49:46.320Z,80.03
2023-03-04T21:53:13.474Z,80.28
2023-03-04T21:56:41.347Z,80.52
2023-03-04T22:00:10.634Z,80.74
2023-03-04T22:03:41.028Z,81.02
2023-03-04T22:07:08.286Z,81.01
2023-03-04T22:10:37.696Z,81.12
2023-03-04T22:14:05.855Z,81.35
2023-03-04T22:17:34.617Z,81.67
2023-03-04T22:21:07.461Z,81.73
2023-03-04T22:24:34.672Z,81.90
2023-03-04T22:28:02.161Z,82.02
2023-03-04T22:31:31.837Z,82.12
2023-03-04T22:34:59.043Z,81.94
2023-03-04T22:38:26.413Z,82.04
2023-03-04T22:41:53.661Z,81.93
2023-03-04T22:45:21.763Z,82.12
2023-03-04T22:48:52.827Z,82.01
2023-03-04T22:52:20.275Z,82.13
2023-03-04T22:55:47.549Z,82.34
2023-03-04T22:59:14.913Z,82.19
2023-03-04T23:02:42.191Z,82.27
2023-03-04T23:06:13.570Z,82.32
2023-03-04T23:09:40.918Z,82.31
2023-03-04T23:13:08.088Z,82.30
2023-03-04T23:16:37.476Z,82.10
2023-03-04T23:20:05.002Z,82.31
2023-03-04T23:23:32.034Z,82.12
2023-03-04T23:26:59.701Z,82.51
2023-03-04T23:30:27.001Z,82.63
2023-03-04T23:33:57.409Z,82.80
2023-03-04T23:37:25.352Z,82.81
2023-03-04T23:40:52.585Z,82.64
2023-03-04T23:44:19.868Z,82.86
2023-03-04T23:47:47.276Z,82.84
2023-03-04T23:51:15.441Z,83.01
2023-03-04T23:54:42.628Z,82.95
2023-03-04T23:58:09.822Z,82.94
